Time;durP1;ratioP1;P1;durP2;ratioP2;P2;SDS_P1;SDS_P2;PMS_P1;PMS_P2;Temp;Humidity;BMP_temperature;BMP_pressure;BME280_temperature;BME280_humidity;BME280_pressure;Samples;Min_cycle;Max_cycle;Signal;HPM_P1;HPM_P2
2023/04/16 00:04:48;;;;;;;12.00;6.35;;;;;;;4.60;83.38;101404.19;10500242;28;20040;-76
2023/04/16 00:09:49;;;;;;;7.93;4.90;;;;;;;4.21;84.00;101341.94;10499619;28;20048;-76
2023/04/16 00:14:50;;;;;;;10.25;5.50;;;;;;;4.23;84.32;101358.47;10498782;28;20110;-76
2023/04/16 00:19:51;;;;;;;10.77;5.32;;;;;;;4.40;84.21;101396.78;10499987;28;20089;-76
2023/04/16 00:24:51;;;;;;;14.38;5.35;;;;;;;4.35;84.34;101405.84;10498891;28;20051;-76
2023/04/16 00:29:52;;;;;;;9.40;5.00;;;;;;;4.29;84.55;101415.91;10498719;28;20032;-77
2023/04/16 00:34:53;;;;;;;7.13;4.53;;;;;;;3.75;84.62;101355.47;10499249;28;20510;-76
2023/04/16 00:39:54;;;;;;;8.40;5.05;;;;;;;3.86;84.91;101389.81;10499920;28;20044;-76
2023/04/16 00:44:54;;;;;;;9.52;5.18;;;;;;;3.86;84.95;101402.94;10498395;28;20094;-77
2023/04/16 00:49:55;;;;;;;7.80;4.53;;;;;;;3.77;84.94;101414.03;10498291;28;20048;-77
2023/04/16 00:54:57;;;;;;;5.95;3.97;;;;;;;3.45;85.47;101395.06;10498343;28;20047;-77
2023/04/16 00:59:58;;;;;;;8.57;4.25;;;;;;;3.30;86.09;101402.13;10498415;28;20086;-76
2023/04/16 01:05:00;;;;;;;7.13;4.05;;;;;;;3.10;86.31;101414.66;10496120;28;20443;-76
2023/04/16 01:10:01;;;;;;;6.32;4.05;;;;;;;2.96;86.83;101451.41;10497703;28;20136;-77
2023/04/16 01:15:02;;;;;;;7.38;4.45;;;;;;;2.62;87.06;101414.06;10497917;28;20058;-77
2023/04/16 01:20:03;;;;;;;10.80;3.72;;;;;;;2.41;87.22;101391.72;10497448;28;20586;-76
2023/04/16 01:25:04;;;;;;;8.35;4.05;;;;;;;2.22;86.90;101384.91;10497141;28;20065;-76
2023/04/16 01:30:06;;;;;;;9.15;4.40;;;;;;;2.30;87.53;101444.75;10496945;28;20082;-76
2023/04/16 01:35:07;;;;;;;7.03;3.80;;;;;;;1.69;87.92;101372.25;10496223;28;20052;-76
2023/04/16 01:40:08;;;;;;;8.93;3.78;;;;;;;2.09;88.79;101449.44;10496581;28;20043;-76
2023/04/16 01:45:09;;;;;;;6.07;4.10;;;;;;;1.89;88.78;101436.66;10497271;28;20071;-76
2023/04/16 01:50:10;;;;;;;10.43;4.40;;;;;;;1.80;89.55;101451.09;10496336;28;20083;-76
2023/04/16 01:55:11;;;;;;;7.82;4.40;;;;;;;1.49;89.68;101423.09;10495702;28;20083;-76
2023/04/16 02:00:12;;;;;;;17.55;4.60;;;;;;;1.76;89.64;101470.50;10495477;28;20036;-77
2023/04/16 02:05:13;;;;;;;8.32;4.13;;;;;;;1.55;89.40;101443.72;10496543;28;20123;-76
2023/04/16 02:10:14;;;;;;;6.25;4.30;;;;;;;1.00;89.55;101387.31;10421595;28;20077;-77
2023/04/16 02:15:15;;;;;;;7.90;4.07;;;;;;;1.54;89.45;101486.56;10326026;28;20058;-76
2023/04/16 02:20:16;;;;;;;6.53;3.53;;;;;;;1.19;89.93;101434.28;10325887;28;20042;-77
2023/04/16 02:25:17;;;;;;;11.90;4.18;;;;;;;1.14;89.38;101434.53;10325054;28;20113;-76
2023/04/16 02:30:18;;;;;;;7.97;4.30;;;;;;;1.30;89.59;101476.44;10325200;28;20553;-76
2023/04/16 02:35:19;;;;;;;5.70;3.45;;;;;;;1.34;89.30;101480.56;10324634;28;20050;-76
2023/04/16 02:40:20;;;;;;;7.72;3.60;;;;;;;1.45;88.86;101497.50;10326087;28;20046;-76
2023/04/16 02:45:21;;;;;;;7.40;3.45;;;;;;;0.99;88.08;101418.75;10411169;28;20485;-77
2023/04/16 02:50:22;;;;;;;7.07;3.85;;;;;;;0.82;88.65;101399.56;10449089;28;20588;-77
2023/04/16 02:55:22;;;;;;;9.25;3.30;;;;;;;1.59;88.12;101492.41;10411218;28;20181;-76
2023/04/16 03:00:23;;;;;;;9.18;3.28;;;;;;;1.83;86.19;101461.41;10393198;28;20038;-81
2023/04/16 03:05:24;;;;;;;7.32;3.55;;;;;;;1.83;84.75;101420.31;10369973;28;20047;-78
2023/04/16 03:10:25;;;;;;;7.45;3.15;;;;;;;2.14;83.97;101425.63;10494982;28;20044;-77
2023/04/16 03:15:26;;;;;;;4.47;2.80;;;;;;;2.94;83.44;101480.38;10493110;28;20060;-79
2023/04/16 03:20:26;;;;;;;7.28;2.75;;;;;;;3.92;80.14;101528.75;10494667;28;20045;-78
2023/04/16 03:25:27;;;;;;;5.57;2.58;;;;;;;4.68;79.74;101522.97;10494630;28;20060;-81
2023/04/16 03:30:28;;;;;;;9.90;3.03;;;;;;;5.07;76.92;101499.34;10502244;28;20036;-78
2023/04/16 03:35:29;;;;;;;6.18;2.50;;;;;;;5.53;74.38;101511.97;10501881;28;20043;-78
2023/04/16 03:40:30;;;;;;;10.25;2.83;;;;;;;4.80;74.39;101502.88;10441463;28;20121;-78
2023/04/16 03:45:31;;;;;;;5.07;2.50;;;;;;;3.25;76.08;101448.81;10501603;28;20045;-79
2023/04/16 03:50:31;;;;;;;5.95;2.50;;;;;;;4.36;76.61;101546.09;10501591;28;20049;-78
2023/04/16 03:55:33;;;;;;;6.32;2.75;;;;;;;5.61;73.59;101541.28;10500790;28;20055;-78
2023/04/16 04:00:35;;;;;;;6.15;2.15;;;;;;;5.97;71.98;101548.44;10500011;28;20500;-76
2023/04/16 04:05:40;;;;;;;4.20;2.40;;;;;;;6.21;70.90;101532.66;10500761;28;20377;-77
2023/04/16 04:10:40;;;;;;;4.90;2.20;;;;;;;5.99;69.07;101521.97;10498731;28;20037;-76
2023/04/16 04:15:42;;;;;;;3.03;2.15;;;;;;;5.60;69.48;101442.09;10500334;28;20044;-78
2023/04/16 04:20:43;;;;;;;5.50;2.45;;;;;;;7.09;68.69;101529.69;10499218;28;20090;-77
2023/04/16 04:25:44;;;;;;;4.72;2.20;;;;;;;6.13;67.07;101567.53;10498849;28;20091;-76
2023/04/16 04:30:45;;;;;;;6.38;2.10;;;;;;;6.09;68.59;101566.03;10500029;28;20056;-77
2023/04/16 04:35:46;;;;;;;4.88;2.60;;;;;;;6.18;67.35;101546.06;10498344;28;20040;-76
2023/04/16 04:40:47;;;;;;;4.68;2.35;;;;;;;6.44;66.14;101567.13;10495520;28;20044;-78
2023/04/16 04:45:48;;;;;;;5.75;2.30;;;;;;;6.34;66.88;101541.41;10290336;28;20039;-79
2023/04/16 04:50:49;;;;;;;6.80;2.10;;;;;;;6.21;65.98;101540.56;10247598;28;20130;-79
2023/04/16 04:55:50;;;;;;;5.70;2.47;;;;;;;6.51;66.58;101582.38;10247592;28;20503;-79
2023/04/16 05:00:51;;;;;;;5.55;2.60;;;;;;;6.27;66.99;101585.00;10247787;28;20082;-79
2023/04/16 05:05:51;;;;;;;6.47;2.40;;;;;;;5.98;67.37;101578.28;10247539;28;20180;-81
2023/04/16 05:10:52;;;;;;;5.75;2.13;;;;;;;5.56;67.71;101561.84;10247763;28;20089;-80
2023/04/16 05:15:53;;;;;;;6.25;2.53;;;;;;;5.28;68.68;101487.34;10248259;29;20047;-79
2023/04/16 05:20:54;;;;;;;8.20;2.20;;;;;;;5.97;67.96;101548.44;10418893;28;20044;-77
2023/04/16 05:25:55;;;;;;;3.88;2.33;;;;;;;6.44;68.07;101581.16;10496758;28;20451;-82
2023/04/16 05:30:56;;;;;;;6.15;2.63;;;;;;;5.78;68.36;101511.13;10259048;28;20069;-81
2023/04/16 05:35:57;;;;;;;4.47;2.60;;;;;;;5.53;67.75;101496.16;10245258;29;20097;-79
2023/04/16 05:40:58;;;;;;;7.55;3.40;;;;;;;6.05;68.28;101587.47;10247450;28;20125;-78
2023/04/16 05:45:58;;;;;;;5.88;2.83;;;;;;;6.09;67.33;101581.03;10247066;28;20035;-80
2023/04/16 05:51:01;;;;;;;6.03;3.58;;;;;;;6.67;68.36;101611.19;10246145;28;20043;-80
2023/04/16 05:56:01;;;;;;;7.05;3.80;;;;;;;6.92;68.15;101612.00;10273006;28;20091;-82
2023/04/16 06:01:02;;;;;;;5.13;2.30;;;;;;;7.03;67.84;101588.25;10496229;28;20213;-79
2023/04/16 06:06:03;;;;;;;3.58;2.30;;;;;;;7.23;67.04;101592.06;10495044;28;20107;-79
2023/04/16 06:11:04;;;;;;;3.08;1.92;;;;;;;7.50;65.20;101581.19;10495733;28;20113;-80
2023/04/16 06:16:05;;;;;;;5.82;2.05;;;;;;;7.74;65.60;101584.56;10496103;28;20656;-79
2023/04/16 06:21:06;;;;;;;5.05;2.20;;;;;;;7.58;63.91;101539.13;10495845;28;20116;-79
2023/04/16 06:26:07;;;;;;;4.28;2.10;;;;;;;7.76;62.33;101592.41;10495824;28;20125;-78
2023/04/16 06:31:07;;;;;;;4.43;1.90;;;;;;;7.89;60.69;101582.53;10495421;28;20048;-79
2023/04/16 06:36:08;;;;;;;3.97;1.98;;;;;;;7.89;60.08;101587.00;10495397;28;20066;-79
2023/04/16 06:41:09;;;;;;;4.93;1.77;;;;;;;7.53;60.51;101509.56;10495485;28;20455;-88
2023/04/16 06:46:10;;;;;;;4.13;2.05;;;;;;;8.29;59.87;101579.41;10495493;28;20046;-81
2023/04/16 06:51:11;;;;;;;4.90;1.70;;;;;;;8.67;58.90;101568.38;10494474;28;20072;-79
2023/04/16 06:56:12;;;;;;;4.93;2.08;;;;;;;8.99;57.47;101567.53;10495016;28;20044;-80
2023/04/16 07:01:13;;;;;;;4.25;1.60;;;;;;;9.26;57.43;101553.75;10495115;28;20419;-83
2023/04/16 07:06:14;;;;;;;4.05;1.90;;;;;;;9.27;54.68;101558.13;10502938;28;20033;-76
2023/04/16 07:11:15;;;;;;;8.18;1.42;;;;;;;9.22;55.48;101522.34;10502340;28;20095;-78
2023/04/16 07:16:17;;;;;;;5.70;1.30;;;;;;;9.12;53.33;101446.25;10501132;28;20098;-81
2023/04/16 07:21:17;;;;;;;4.35;1.60;;;;;;;9.85;51.15;101523.06;10501644;28;20036;-82
2023/04/16 07:26:18;;;;;;;5.32;1.50;;;;;;;10.02;51.01;101545.47;10501976;28;20040;-78
2023/04/16 07:31:19;;;;;;;4.97;1.38;;;;;;;9.76;49.49;101476.94;10393345;28;20062;-76
2023/04/16 07:36:20;;;;;;;2.15;0.90;;;;;;;9.94;50.04;101542.66;10250870;28;20047;-82
2023/04/16 07:41:20;;;;;;;5.30;1.38;;;;;;;10.16;49.28;101536.28;10265522;28;20043;-78
2023/04/16 07:46:21;;;;;;;4.80;1.40;;;;;;;9.86;49.03;101492.88;10249744;28;20093;-77
2023/04/16 07:51:22;;;;;;;3.03;1.10;;;;;;;9.89;46.83;101492.63;10285960;28;20048;-78
2023/04/16 07:56:23;;;;;;;5.13;1.42;;;;;;;10.18;46.39;101523.72;10455291;28;20082;-77
2023/04/16 08:01:24;;;;;;;5.68;1.23;;;;;;;10.31;45.45;101508.38;10471028;28;20137;-79
2023/04/16 08:06:25;;;;;;;2.42;1.27;;;;;;;10.32;45.41;101480.88;10379456;28;20072;-79
2023/04/16 08:11:26;;;;;;;6.07;1.30;;;;;;;10.52;44.96;101469.25;10312989;28;20055;-81
2023/04/16 08:16:27;;;;;;;5.07;1.25;;;;;;;10.39;44.42;101412.91;10265421;28;20137;-78
2023/04/16 08:21:29;;;;;;;3.28;1.35;;;;;;;11.26;44.63;101509.47;10444241;28;20098;-81
2023/04/16 08:26:30;;;;;;;2.10;0.90;;;;;;;11.27;44.17;101466.75;10484381;28;20052;-90
2023/04/16 08:31:31;;;;;;;3.33;1.20;;;;;;;11.54;43.96;101459.78;10379487;28;20037;-86
2023/04/16 08:36:32;;;;;;;3.20;1.30;;;;;;;10.99;42.10;101364.00;10500316;28;20131;-83
2023/04/16 08:41:35;;;;;;;2.70;1.30;;;;;;;11.34;41.82;101416.47;10388844;28;20137;-83
2023/04/16 08:46:38;;;;;;;1.90;1.13;;;;;;;11.56;41.78;101421.41;10289989;28;20537;-83
2023/04/16 08:51:41;;;;;;;3.97;1.50;;;;;;;12.13;40.38;101481.66;10288851;28;20074;-89
2023/04/16 08:56:42;;;;;;;4.22;1.60;;;;;;;11.49;39.62;101382.25;10328123;28;20040;-81
2023/04/16 09:01:44;;;;;;;3.38;1.77;;;;;;;11.90;40.45;101436.78;10499595;28;20040;-90
2023/04/16 09:06:46;;;;;;;3.00;1.50;;;;;;;11.63;38.75;101384.38;10499021;28;20044;-85
2023/04/16 09:11:51;;;;;;;5.40;1.33;;;;;;;11.79;36.40;101437.81;10260594;28;20059;-84
2023/04/16 09:16:56;;;;;;;5.95;1.70;;;;;;;12.09;37.50;101435.84;10247621;28;20077;-81
2023/04/16 09:21:57;;;;;;;9.48;1.80;;;;;;;11.81;37.59;101355.94;10248359;28;20051;-88
2023/04/16 09:26:59;;;;;;;6.40;1.70;;;;;;;12.19;37.20;101415.28;10247430;28;20445;-89
2023/04/16 09:32:05;;;;;;;6.22;1.30;;;;;;;12.31;36.57;101422.06;10247727;28;20134;-87
2023/04/16 09:37:16;;;;;;;6.30;1.67;;;;;;;12.25;36.06;101366.72;10247844;28;20047;-85
2023/04/16 09:42:22;;;;;;;6.28;1.58;;;;;;;12.61;36.39;101408.47;10248162;28;20098;-86
2023/04/16 09:47:25;;;;;;;4.50;1.92;;;;;;;12.76;34.96;101430.91;10248129;28;20047;-87
2023/04/16 09:52:26;;;;;;;5.47;2.03;;;;;;;12.45;35.10;101366.56;10262600;28;20569;-85
2023/04/16 09:57:28;;;;;;;5.18;1.80;;;;;;;12.57;35.36;101349.31;10309465;28;20050;-87
2023/04/16 10:02:29;;;;;;;7.00;1.60;;;;;;;13.05;34.95;101430.59;10379878;28;20036;-88
2023/04/16 10:07:35;;;;;;;4.35;1.48;;;;;;;12.80;33.65;101405.59;10496488;28;20048;-79
2023/04/16 10:12:36;;;;;;;10.10;1.60;;;;;;;12.54;34.84;101336.31;10366317;28;20051;-86
2023/04/16 10:17:38;;;;;;;10.85;2.10;;;;;;;12.99;34.43;101402.72;10286341;28;20035;-86
2023/04/16 10:22:39;;;;;;;5.22;1.60;;;;;;;13.27;33.97;101404.41;10286330;28;20057;-83
2023/04/16 10:27:40;;;;;;;15.68;1.77;;;;;;;13.27;34.12;101391.06;10286051;28;20170;-84
2023/04/16 10:32:41;;;;;;;7.78;1.85;;;;;;;13.38;34.16;101378.28;10284753;28;20046;-88
2023/04/16 10:37:43;;;;;;;4.13;1.77;;;;;;;13.29;33.59;101383.75;10291629;28;20050;-84
2023/04/16 10:42:56;;;;;;;5.97;1.50;;;;;;;13.12;33.80;101362.28;10291719;28;20049;-85
2023/04/16 10:47:57;;;;;;;11.93;2.83;;;;;;;13.25;33.42;101380.53;10293305;28;20045;-86
2023/04/16 10:53:18;;;;;;;7.15;1.83;;;;;;;13.52;32.72;101381.31;10292919;28;20078;-84
2023/04/16 10:58:33;;;;;;;13.07;1.90;;;;;;;13.14;32.04;101381.63;10292028;28;20126;-84
2023/04/16 11:03:34;;;;;;;8.48;1.65;;;;;;;12.95;32.20;101360.50;10292340;28;20129;-83
2023/04/16 11:08:36;;;;;;;8.75;1.63;;;;;;;13.18;31.39;101329.63;10293583;28;20133;-84
2023/04/16 11:13:41;;;;;;;8.95;1.80;;;;;;;12.94;31.59;101273.50;10293075;28;20066;-82
2023/04/16 11:18:44;;;;;;;4.55;1.40;;;;;;;13.42;31.43;101362.75;10360078;28;20131;-85
2023/04/16 11:23:47;;;;;;;9.77;1.83;;;;;;;13.22;31.85;101288.28;10397338;28;20040;-84
2023/04/16 11:28:48;;;;;;;9.07;1.60;;;;;;;13.07;31.30;101271.22;10502592;28;20538;-87
2023/04/16 11:33:49;;;;;;;7.50;1.33;;;;;;;13.08;30.55;101344.09;10502145;28;20044;-83
2023/04/16 11:38:50;;;;;;;14.80;1.80;;;;;;;13.01;31.31;101331.41;10262338;28;20047;-79
2023/04/16 11:43:51;;;;;;;7.93;1.65;;;;;;;13.26;30.60;101318.19;10251615;28;20041;-78
2023/04/16 11:48:54;;;;;;;6.93;1.50;;;;;;;12.81;31.43;101257.97;10250875;28;20563;-78
2023/04/16 11:53:55;;;;;;;4.88;1.67;;;;;;;12.92;31.24;101302.16;10333283;28;20946;-78
2023/04/16 11:59:16;;;;;;;6.40;1.58;;;;;;;13.21;31.73;101280.44;10470794;28;20072;-86
2023/04/16 12:04:21;;;;;;;4.32;1.48;;;;;;;13.62;31.38;101300.09;10328294;28;20042;-84
2023/04/16 12:09:28;;;;;;;6.38;1.73;;;;;;;13.58;31.06;101301.44;10290286;28;20133;-82
2023/04/16 12:14:30;;;;;;;6.68;1.40;;;;;;;13.62;31.56;101297.41;10289444;28;20063;-81
2023/04/16 12:19:31;;;;;;;4.47;1.30;;;;;;;13.51;31.01;101275.53;10495462;28;20076;-79
2023/04/16 12:24:35;;;;;;;6.13;1.40;;;;;;;13.53;30.80;101265.53;10308824;28;20074;-77
2023/04/16 12:29:37;;;;;;;3.63;1.25;;;;;;;13.41;31.21;101251.69;10301098;28;20413;-85
2023/04/16 12:34:49;;;;;;;3.90;1.30;;;;;;;13.76;31.03;101287.06;10329412;28;20054;-77
2023/04/16 12:39:50;;;;;;;4.35;1.45;;;;;;;13.68;31.49;101287.91;10328976;28;20050;-80
2023/04/16 12:44:50;;;;;;;2.58;1.13;;;;;;;13.21;30.55;101243.09;10328070;28;20087;-82
2023/04/16 12:49:51;;;;;;;8.68;1.48;;;;;;;13.56;31.14;101276.72;10328761;28;20115;-84
2023/04/16 12:54:52;;;;;;;6.32;1.20;;;;;;;13.29;31.07;101250.31;10328762;28;20039;-83
2023/04/16 12:59:57;;;;;;;7.95;1.20;;;;;;;12.98;30.07;101227.69;10328752;28;20045;-80
2023/04/16 13:04:57;;;;;;;;;;;;;;;13.42;30.98;101282.69;10331271;28;20112;-79
2023/04/16 13:09:58;;;;;;;9.13;1.30;;;;;;;13.37;30.93;101274.34;10350339;28;20423;-79
2023/04/16 13:14:59;;;;;;;4.65;1.30;;;;;;;13.18;30.65;101281.59;10392034;28;20522;-85
2023/04/16 13:20:00;;;;;;;7.70;1.38;;;;;;;12.89;30.50;101247.34;10371358;28;20055;-79
2023/04/16 13:25:01;;;;;;;8.57;1.38;;;;;;;12.84;31.74;101254.97;10362558;28;20062;-84
2023/04/16 13:30:02;;;;;;;16.70;1.77;;;;;;;12.98;31.95;101280.19;10496580;28;20040;-85
2023/04/16 13:35:04;;;;;;;3.35;1.40;;;;;;;12.45;30.92;101204.00;10397003;28;20054;-78
2023/04/16 13:40:05;;;;;;;4.07;1.40;;;;;;;12.47;32.24;101213.47;10496578;28;20060;-78
2023/04/16 13:45:08;;;;;;;4.57;1.27;;;;;;;12.90;32.86;101269.50;10494261;28;20582;-76
2023/04/16 13:50:09;;;;;;;3.25;1.13;;;;;;;12.76;32.97;101279.75;10399752;28;20078;-80
2023/04/16 13:55:12;;;;;;;6.53;1.52;;;;;;;12.52;33.59;101256.47;10414038;28;20080;-84
2023/04/16 14:00:14;;;;;;;5.13;1.20;;;;;;;12.01;33.61;101222.69;10292197;28;20145;-83
2023/04/16 14:05:15;;;;;;;8.60;1.70;;;;;;;12.25;34.56;101289.47;10311942;28;20491;-82
2023/04/16 14:10:16;;;;;;;3.58;1.50;;;;;;;12.10;34.45;101285.69;10347627;28;20041;-80
2023/04/16 14:15:17;;;;;;;2.72;1.17;;;;;;;11.37;34.69;101182.09;11857488;22;20970;-77
2023/04/16 14:20:18;;;;;;;4.32;1.10;;;;;;;11.71;35.42;101254.06;10450594;28;20036;-83
2023/04/16 14:30:30;;;;;;;3.75;1.05;;;;;;;11.07;36.51;101208.06;10416736;22;20101;-81
2023/04/16 14:40:41;;;;;;;5.88;1.38;;;;;;;11.34;37.73;101284.31;12075939;22;20068;-85
2023/04/16 14:45:42;;;;;;;3.17;1.50;;;;;;;10.76;37.77;101228.78;10237935;28;20033;-81
2023/04/16 14:50:43;;;;;;;3.70;1.50;;;;;;;10.86;38.26;101280.09;10282991;28;20083;-83
2023/04/16 14:55:43;;;;;;;5.38;1.38;;;;;;;10.37;38.64;101215.66;10309849;28;20060;-82
2023/04/16 15:00:44;;;;;;;3.97;1.52;;;;;;;10.30;38.73;101216.41;10220073;28;20046;-80
2023/04/16 15:10:55;;;;;;;10.70;1.60;;;;;;;10.43;40.22;101294.75;10573580;23;20123;-87
2023/04/16 15:21:06;;;;;;;4.35;1.20;;;;;;;10.14;41.21;101297.47;11052148;23;20058;-87
2023/04/16 15:26:07;;;;;;;10.68;1.65;;;;;;;9.85;41.83;101280.72;10233557;28;20044;-88
2023/04/16 15:31:08;;;;;;;4.82;1.77;;;;;;;8.93;42.41;101154.63;10189549;28;20536;-87
2023/04/16 15:47:44;;;;;;;7.65;1.83;;;;;;;9.13;44.61;101298.63;10674316;23;20050;-83
2023/04/16 15:52:45;;;;;;;12.60;1.73;;;;;;;8.60;45.20;101259.13;10359158;28;20073;-81
2023/04/16 15:57:46;;;;;;;4.78;1.50;;;;;;;8.51;45.76;101283.75;10366608;28;20038;-84
2023/04/16 16:02:47;;;;;;;9.05;1.77;;;;;;;8.08;46.02;101232.63;10371243;28;20045;-80
2023/04/16 16:07:48;;;;;;;6.38;1.45;;;;;;;8.19;46.70;101282.81;10369104;28;20049;-85
2023/04/16 16:12:49;;;;;;;3.60;1.30;;;;;;;7.97;47.01;101275.84;10337537;28;20049;-80
2023/04/16 16:17:51;;;;;;;5.50;1.40;;;;;;;7.84;47.21;101269.06;10332941;28;20069;-87
2023/04/16 16:22:52;;;;;;;5.60;1.15;;;;;;;7.94;46.84;101320.25;10369872;28;20065;-81
2023/04/16 16:27:53;;;;;;;4.85;1.40;;;;;;;7.85;47.08;101326.31;10371224;28;20532;-79
2023/04/16 16:32:54;;;;;;;7.35;1.35;;;;;;;7.79;46.52;101343.50;10373832;28;20144;-78
2023/04/16 16:37:56;;;;;;;5.38;1.67;;;;;;;7.64;46.44;101350.06;10356694;28;20129;-83
2023/04/16 16:42:56;;;;;;;6.22;1.50;;;;;;;6.97;46.42;101250.56;10376600;28;20045;-89
2023/04/16 16:47:58;;;;;;;3.70;1.50;;;;;;;7.20;46.59;101314.81;10356680;28;20058;-85
2023/04/16 16:52:59;;;;;;;3.55;1.65;;;;;;;7.34;46.94;101377.16;10374580;28;20387;-91
2023/04/16 16:57:59;;;;;;;9.77;1.35;;;;;;;6.79;47.27;101300.41;10375941;28;20107;-86
2023/04/16 17:03:00;;;;;;;6.57;1.50;;;;;;;7.03;47.55;101361.03;10373763;28;20183;-80
2023/04/16 17:08:01;;;;;;;7.57;1.50;;;;;;;6.39;47.43;101283.22;10372191;28;20037;-84
2023/04/16 17:13:02;;;;;;;3.65;1.40;;;;;;;6.60;48.45;101356.47;10371532;28;20049;-85
2023/04/16 17:18:03;;;;;;;7.57;1.40;;;;;;;6.69;48.65;101387.44;10373622;28;20056;-86
2023/04/16 17:23:07;;;;;;;6.38;1.73;;;;;;;6.46;49.14;101372.50;10372030;28;20050;-88
2023/04/16 17:34:10;;;;;;;2.58;1.02;;;;;;;5.99;49.69;101326.78;10664815;23;20070;-77
2023/04/16 17:39:10;;;;;;;6.10;1.30;;;;;;;5.13;50.25;101212.66;10373654;28;20046;-83
2023/04/16 17:44:11;;;;;;;6.90;1.42;;;;;;;6.15;51.04;101385.34;10372037;28;20041;-78
2023/04/16 17:49:12;;;;;;;5.03;1.75;;;;;;;5.97;50.91;101382.28;10370631;28;20042;-86
2023/04/16 17:54:13;;;;;;;4.72;1.58;;;;;;;5.30;51.75;101295.75;10366508;28;20053;-85
2023/04/16 17:59:14;;;;;;;3.67;1.30;;;;;;;5.78;52.08;101388.03;10370343;28;20481;-86
2023/04/16 18:04:15;;;;;;;5.65;1.50;;;;;;;5.23;52.04;101323.47;10372993;28;20497;-81
2023/04/16 18:09:15;;;;;;;6.57;1.40;;;;;;;5.42;52.90;101358.09;10373197;28;20474;-85
2023/04/16 18:14:18;;;;;;;4.53;1.58;;;;;;;5.29;52.60;101354.63;10367645;28;20464;-88
2023/04/16 18:19:21;;;;;;;7.57;1.50;;;;;;;5.35;53.19;101385.81;10371714;28;20045;-82
2023/04/16 18:24:22;;;;;;;4.57;1.80;;;;;;;5.19;53.25;101375.53;10365302;28;20050;-78
2023/04/16 18:29:22;;;;;;;7.85;1.52;;;;;;;4.94;53.26;101339.56;10370370;28;20501;-80
2023/04/16 18:34:24;;;;;;;3.25;1.52;;;;;;;4.82;52.95;101337.78;10368744;28;20065;-81
2023/04/16 18:39:25;;;;;;;6.13;1.65;;;;;;;4.94;53.49;101365.03;10370692;28;20046;-85
2023/04/16 18:44:26;;;;;;;4.45;1.50;;;;;;;3.37;52.87;101146.84;10365924;28;20041;-83
2023/04/16 18:49:26;;;;;;;5.65;1.83;;;;;;;4.46;54.03;101331.47;10370083;28;20128;-84
2023/04/16 18:54:27;;;;;;;7.22;1.50;;;;;;;4.69;53.23;101386.94;10345264;28;20125;-83
2023/04/16 18:59:28;;;;;;;2.83;1.33;;;;;;;4.35;53.66;101347.94;10339657;28;20050;-82
2023/04/16 19:04:29;;;;;;;4.68;1.50;;;;;;;4.45;53.55;101392.06;10338205;28;20042;-83
2023/04/16 19:09:29;;;;;;;6.70;2.03;;;;;;;4.34;54.05;101383.09;10338850;28;20407;-80
2023/04/16 19:14:30;;;;;;;5.18;1.90;;;;;;;4.02;54.12;101350.22;10337770;28;20049;-81
2023/04/16 19:19:32;;;;;;;5.10;1.70;;;;;;;3.55;54.87;101288.44;10338218;28;20486;-82
2023/04/16 19:24:33;;;;;;;7.05;1.63;;;;;;;3.98;55.14;101373.22;10339010;28;20132;-80
2023/04/16 19:29:34;;;;;;;5.70;1.80;;;;;;;3.92;55.05;101381.53;10337469;28;20551;-83
2023/04/16 19:34:43;;;;;;;6.80;2.08;;;;;;;3.30;55.90;101287.41;10338363;28;20532;-84
2023/04/16 19:39:44;;;;;;;4.93;1.75;;;;;;;3.31;55.53;101306.63;10365514;28;20076;-86
2023/04/16 19:44:45;;;;;;;4.93;2.10;;;;;;;3.28;56.17;101319.94;10378710;28;20073;-84
2023/04/16 19:49:46;;;;;;;5.28;2.10;;;;;;;3.55;56.27;101377.75;10377629;28;20050;-86
2023/04/16 19:54:47;;;;;;;5.85;2.30;;;;;;;3.46;56.41;101386.22;10374402;28;20512;-81
2023/04/16 19:59:47;;;;;;;4.78;2.20;;;;;;;2.41;57.17;101237.00;10372254;28;20613;-85
2023/04/16 20:04:48;;;;;;;6.22;2.17;;;;;;;2.56;57.39;101269.31;10359532;28;20521;-87
2023/04/16 20:09:49;;;;;;;4.18;2.10;;;;;;;3.11;57.85;101369.13;10376912;28;20421;-86
2023/04/16 20:14:50;;;;;;;5.78;1.90;;;;;;;2.47;58.33;101295.16;10377142;28;20425;-86
2023/04/16 20:19:50;;;;;;;6.95;2.08;;;;;;;1.13;58.28;101097.84;10375639;28;20034;-87
2023/04/16 20:24:53;;;;;;;5.22;2.22;;;;;;;2.69;59.07;101383.91;10374902;28;20045;-86
2023/04/16 20:29:54;;;;;;;4.47;1.90;;;;;;;2.49;59.61;101358.03;10376931;28;20044;-88
2023/04/16 20:34:55;;;;;;;5.57;2.30;;;;;;;2.49;59.96;101381.63;10357048;28;20084;-85
2023/04/16 20:39:57;;;;;;;5.65;2.13;;;;;;;1.82;60.65;101292.88;10375601;28;20076;-86
2023/04/16 20:44:59;;;;;;;3.95;1.90;;;;;;;1.84;60.59;101303.25;10359653;28;20034;-83
2023/04/16 20:50:01;;;;;;;6.32;2.33;;;;;;;1.50;61.00;101246.75;10370756;28;20551;-86
2023/04/16 20:55:02;;;;;;;4.00;2.17;;;;;;;1.46;61.81;101255.69;10375474;28;20041;-85
2023/04/16 21:00:07;;;;;;;4.13;2.00;;;;;;;1.32;62.37;101246.00;10374613;28;20085;-86
2023/04/16 21:05:12;;;;;;;3.83;1.88;;;;;;;1.85;62.53;101351.25;10374131;28;20069;-86
2023/04/16 21:10:18;;;;;;;6.07;2.95;;;;;;;1.79;62.96;101355.91;10374836;28;20069;-87
2023/04/16 21:15:19;;;;;;;11.02;4.07;;;;;;;1.33;63.34;101297.41;10374089;28;20421;-88
2023/04/16 21:20:20;;;;;;;8.77;2.95;;;;;;;0.66;63.82;101192.94;10356419;28;20137;-85
2023/04/16 21:25:22;;;;;;;7.45;2.42;;;;;;;1.63;64.50;101357.72;10356876;28;20165;-84
2023/04/16 21:30:23;;;;;;;10.10;3.00;;;;;;;0.83;64.88;101233.84;10373753;28;20049;-87
2023/04/16 21:35:24;;;;;;;7.20;2.70;;;;;;;0.48;64.87;101186.09;10355308;28;20140;-85
2023/04/16 21:40:25;;;;;;;5.78;2.63;;;;;;;1.20;65.52;101318.22;10373365;28;20088;-88
2023/04/16 21:45:26;;;;;;;8.90;2.50;;;;;;;0.79;65.91;101271.56;10373600;28;20054;-85
2023/04/16 21:50:27;;;;;;;6.13;2.38;;;;;;;1.11;66.52;101323.94;10353403;28;20038;-88
2023/04/16 21:55:27;;;;;;;4.65;2.15;;;;;;;0.52;66.90;101234.66;10315163;28;20481;-87
2023/04/16 22:00:33;;;;;;;4.60;2.08;;;;;;;0.28;68.63;101183.69;10332353;28;20042;-85
2023/04/16 22:05:33;;;;;;;4.22;2.30;;;;;;;0.21;67.55;101180.56;10332361;28;20061;-87
2023/04/16 22:10:34;;;;;;;6.30;2.70;;;;;;;0.88;68.09;101283.31;10332861;28;20061;-86
2023/04/16 22:15:35;;;;;;;5.90;2.78;;;;;;;0.87;68.62;101286.88;10331429;28;20046;-88
2023/04/16 22:20:37;;;;;;;4.40;2.50;;;;;;;0.35;68.26;101206.78;10313708;28;20038;-87
2023/04/16 22:25:38;;;;;;;4.38;2.13;;;;;;;0.17;69.33;101174.63;10314915;28;20042;-88
2023/04/16 22:30:39;;;;;;;5.32;2.22;;;;;;;0.00;69.45;101148.59;10331433;28;20050;-86
2023/04/16 22:35:40;;;;;;;5.18;2.33;;;;;;;0.27;69.79;101200.28;10339238;28;20137;-87
2023/04/16 22:40:42;;;;;;;9.88;2.80;;;;;;;-0.22;70.50;101133.16;10340652;28;20050;-88
2023/04/16 22:45:44;;;;;;;4.95;2.42;;;;;;;-0.08;69.99;101167.25;10354259;28;20049;-87
2023/04/16 22:50:49;;;;;;;6.65;2.85;;;;;;;-0.20;70.93;101146.16;10379737;28;20050;-88
2023/04/16 22:55:50;;;;;;;6.00;2.67;;;;;;;0.47;71.11;101261.97;10379542;28;20068;-85
2023/04/16 23:00:51;;;;;;;5.45;2.80;;;;;;;-0.09;71.06;101162.09;10379809;28;20042;-87
2023/04/16 23:05:52;;;;;;;8.13;2.25;;;;;;;0.59;71.46;101283.06;10380155;28;20037;-86
2023/04/16 23:10:53;;;;;;;6.03;2.38;;;;;;;-0.52;71.70;101117.31;10380589;28;20420;-88
2023/04/16 23:15:54;;;;;;;4.38;2.63;;;;;;;0.10;72.17;101178.50;10379080;28;20036;-89
2023/04/16 23:20:54;;;;;;;7.53;2.70;;;;;;;-0.19;72.00;101153.91;10360849;28;20046;-87
2023/04/16 23:25:55;;;;;;;4.57;2.35;;;;;;;0.04;72.20;101191.06;10361987;28;20044;-87
2023/04/16 23:30:56;;;;;;;4.35;2.50;;;;;;;0.07;73.42;101204.81;10344319;28;20061;-87
2023/04/16 23:35:57;;;;;;;6.45;2.40;;;;;;;0.44;73.10;101261.19;10377430;28;20417;-88
2023/04/16 23:40:58;;;;;;;6.05;2.70;;;;;;;0.19;73.49;101213.78;10377431;28;20037;-86
2023/04/16 23:45:58;;;;;;;5.10;2.72;;;;;;;0.28;73.77;101231.56;10377252;28;20498;-87
2023/04/16 23:50:59;;;;;;;5.70;2.10;;;;;;;-0.27;73.83;101122.97;10377561;28;20417;-86
2023/04/16 23:56:00;;;;;;;4.57;2.30;;;;;;;0.58;74.41;101276.16;10377737;28;20045;-88
